Time;durP1;ratioP1;P1;durP2;ratioP2;P2;SDS_P1;SDS_P2;PMS_P1;PMS_P2;Temp;Humidity;BMP_temperature;BMP_pressure;BME280_temperature;BME280_humidity;BME280_pressure;Samples;Min_cycle;Max_cycle;Signal;HPM_P1;HPM_P2
2023/11/10 00:00:12;;;;;;;7.15;3.67;;;15.20;91.70;;;;;;5095382;28;20040;-77
2023/11/10 00:02:45;;;;;;;9.07;3.50;;;15.20;91.80;;;;;;5095062;28;20487;-76
2023/11/10 00:05:11;;;;;;;6.43;3.08;;;15.10;91.80;;;;;;5076850;28;20282;-77
2023/11/10 00:07:38;;;;;;;4.93;2.65;;;15.10;91.80;;;;;;5077046;28;20113;-77
2023/11/10 00:10:04;;;;;;;5.97;2.55;;;15.00;91.80;;;;;;5094938;28;20051;-77
2023/11/10 00:12:30;;;;;;;5.78;3.17;;;15.00;91.80;;;;;;5094870;28;20115;-77
2023/11/10 00:14:59;;;;;;;5.95;2.40;;;14.90;91.80;;;;;;5094948;28;20408;-76
2023/11/10 00:17:25;;;;;;;4.38;2.53;;;14.90;91.70;;;;;;5094844;28;20471;-77
2023/11/10 00:19:51;;;;;;;5.85;2.60;;;14.90;91.80;;;;;;5094768;28;20059;-77
2023/11/10 00:22:17;;;;;;;4.05;2.10;;;14.80;91.70;;;;;;5095008;28;20035;-77
2023/11/10 00:24:46;;;;;;;4.57;2.03;;;14.80;91.70;;;;;;5059754;28;20121;-78
2023/11/10 00:27:14;;;;;;;6.32;2.53;;;14.70;91.60;;;;;;5094838;28;20089;-78
2023/11/10 00:29:46;;;;;;;5.38;2.38;;;14.80;91.70;;;;;;5094619;28;20067;-78
2023/11/10 00:32:12;;;;;;;6.07;2.65;;;14.70;91.70;;;;;;5094496;28;20056;-77
2023/11/10 00:34:39;;;;;;;7.47;2.75;;;14.70;91.60;;;;;;5094570;28;20024;-78
2023/11/10 00:37:05;;;;;;;4.43;2.40;;;14.70;91.60;;;;;;5094414;28;20117;-77
2023/11/10 00:39:31;;;;;;;5.90;2.40;;;14.70;91.60;;;;;;5094232;28;20063;-77
2023/11/10 00:41:58;;;;;;;6.07;2.40;;;14.70;91.60;;;;;;5093839;28;20068;-78
2023/11/10 00:44:24;;;;;;;4.35;2.28;;;14.70;91.60;;;;;;5094897;28;20056;-78
2023/11/10 00:46:50;;;;;;;5.40;2.33;;;14.70;91.60;;;;;;5094153;28;20047;-77
2023/11/10 00:49:16;;;;;;;6.18;2.70;;;14.70;91.60;;;;;;5094471;28;20028;-78
2023/11/10 00:51:43;;;;;;;4.18;2.15;;;14.70;91.60;;;;;;5094154;28;20016;-77
2023/11/10 00:54:09;;;;;;;5.43;2.45;;;14.70;91.80;;;;;;5075809;28;20407;-77
2023/11/10 00:56:35;;;;;;;4.30;2.40;;;14.60;91.70;;;;;;5093577;28;20024;-77
2023/11/10 00:59:01;;;;;;;8.35;2.65;;;14.60;91.70;;;;;;5093979;28;20073;-77
2023/11/10 01:01:27;;;;;;;5.00;2.28;;;14.60;91.80;;;;;;5094170;28;20036;-77
2023/11/10 01:03:58;;;;;;;4.43;2.20;;;14.60;91.80;;;;;;5094075;28;20064;-77
2023/11/10 01:06:23;;;;;;;3.17;1.88;;;14.50;91.80;;;;;;5093848;28;20024;-77
2023/11/10 01:08:49;;;;;;;5.10;2.28;;;14.50;91.80;;;;;;5093758;28;20107;-77
2023/11/10 01:11:15;;;;;;;4.18;1.75;;;14.50;91.90;;;;;;5093575;28;20071;-77
2023/11/10 01:13:41;;;;;;;5.00;2.00;;;14.50;91.90;;;;;;5094068;28;20036;-77
2023/11/10 01:16:07;;;;;;;3.72;2.03;;;14.50;91.90;;;;;;5093829;28;20059;-77
2023/11/10 01:18:33;;;;;;;3.40;1.85;;;14.40;91.80;;;;;;5093590;28;20487;-78
2023/11/10 01:20:59;;;;;;;5.05;2.10;;;14.40;91.90;;;;;;5093426;28;20162;-78
2023/11/10 01:23:26;;;;;;;4.28;2.17;;;14.40;91.80;;;;;;5093615;28;20028;-78
2023/11/10 01:25:52;;;;;;;6.32;2.10;;;14.40;91.90;;;;;;5093524;28;20075;-77
2023/11/10 01:28:20;;;;;;;4.53;1.90;;;14.40;91.90;;;;;;5093495;28;20033;-77
2023/11/10 01:30:47;;;;;;;5.05;1.98;;;14.40;91.80;;;;;;5093324;28;20114;-77
2023/11/10 01:33:13;;;;;;;4.38;2.05;;;14.30;91.80;;;;;;5093482;28;20032;-77
2023/11/10 01:35:39;;;;;;;3.90;2.00;;;14.30;91.80;;;;;;5093080;28;20111;-76
2023/11/10 01:38:05;;;;;;;4.07;1.83;;;14.30;91.90;;;;;;5093459;28;20450;-77
2023/11/10 01:40:44;;;;;;;4.65;2.28;;;14.30;91.90;;;;;;5078884;28;20039;-77
2023/11/10 01:43:11;;;;;;;4.20;1.90;;;14.30;91.90;;;;;;5072719;28;20551;-77
2023/11/10 01:45:37;;;;;;;5.35;2.30;;;14.30;91.90;;;;;;5072832;28;20546;-76
2023/11/10 01:48:04;;;;;;;3.90;1.80;;;14.30;91.90;;;;;;5054975;28;20024;-76
2023/11/10 01:50:32;;;;;;;4.40;2.10;;;14.30;92.00;;;;;;5072598;28;20033;-78
2023/11/10 01:52:58;;;;;;;4.28;2.10;;;14.30;92.00;;;;;;5054826;28;20044;-78
2023/11/10 01:55:26;;;;;;;3.25;1.75;;;14.30;92.10;;;;;;5073124;28;20492;-77
2023/11/10 01:57:52;;;;;;;4.50;2.10;;;14.20;92.00;;;;;;5054737;28;20182;-78
2023/11/10 02:00:21;;;;;;;3.25;1.90;;;14.20;92.10;;;;;;5072749;28;20052;-77
2023/11/10 02:02:47;;;;;;;5.18;2.20;;;14.20;92.20;;;;;;5072393;28;20114;-78
2023/11/10 02:05:13;;;;;;;3.45;2.17;;;14.20;92.20;;;;;;5072687;28;20043;-77
2023/11/10 02:07:40;;;;;;;3.88;2.28;;;14.20;92.20;;;;;;5072774;28;20156;-77
2023/11/10 02:10:07;;;;;;;6.18;2.13;;;14.20;92.20;;;;;;5072620;28;20033;-78
2023/11/10 02:12:32;;;;;;;6.65;2.05;;;14.20;92.20;;;;;;5072681;28;20033;-77
2023/11/10 02:14:58;;;;;;;4.35;1.90;;;14.20;92.20;;;;;;5072823;28;20035;-76
2023/11/10 02:17:24;;;;;;;4.07;1.83;;;14.20;92.30;;;;;;5072387;28;20506;-76
2023/11/10 02:19:50;;;;;;;2.92;1.73;;;14.20;92.30;;;;;;5072551;28;20135;-76
2023/11/10 02:22:17;;;;;;;5.38;1.67;;;14.20;92.30;;;;;;5072152;28;20049;-78
2023/11/10 02:24:47;;;;;;;2.85;1.80;;;14.20;92.30;;;;;;5053939;28;20053;-76
2023/11/10 02:27:12;;;;;;;3.13;1.70;;;14.20;92.30;;;;;;5072116;28;20029;-78
2023/11/10 02:29:42;;;;;;;2.85;1.63;;;14.20;92.40;;;;;;5071863;28;20106;-78
2023/11/10 02:32:10;;;;;;;3.72;1.70;;;14.20;92.40;;;;;;5072450;28;20024;-78
2023/11/10 02:34:36;;;;;;;4.30;1.80;;;14.20;92.30;;;;;;5073890;28;20106;-76
2023/11/10 02:37:02;;;;;;;2.97;1.50;;;14.20;92.40;;;;;;5072895;28;20349;-77
2023/11/10 02:39:28;;;;;;;3.10;1.60;;;14.20;92.40;;;;;;5071474;28;20048;-76
2023/11/10 02:41:54;;;;;;;2.72;1.55;;;14.20;92.40;;;;;;5072101;28;20037;-77
2023/11/10 02:44:21;;;;;;;3.50;1.83;;;14.10;92.50;;;;;;5071990;28;20033;-77
2023/11/10 02:46:47;;;;;;;3.72;1.92;;;14.10;92.40;;;;;;5071841;28;20494;-78
2023/11/10 02:49:12;;;;;;;2.83;1.73;;;14.10;92.50;;;;;;5071643;28;20484;-77
2023/11/10 02:51:38;;;;;;;4.57;1.52;;;14.10;92.50;;;;;;5071592;28;20102;-76
2023/11/10 02:54:04;;;;;;;3.40;1.60;;;14.10;92.40;;;;;;5071777;28;20119;-76
2023/11/10 02:56:30;;;;;;;3.10;1.50;;;14.10;92.40;;;;;;5071669;28;20040;-76
2023/11/10 02:58:56;;;;;;;2.60;1.50;;;14.10;92.40;;;;;;5071435;28;20037;-76
2023/11/10 03:01:23;;;;;;;2.47;1.35;;;14.10;92.50;;;;;;5071996;28;20037;-76
2023/11/10 03:03:50;;;;;;;4.22;1.63;;;14.10;92.40;;;;;;5073477;28;20032;-76
2023/11/10 03:06:16;;;;;;;3.58;1.50;;;14.20;92.40;;;;;;5076031;28;20039;-76
2023/11/10 03:08:42;;;;;;;2.30;1.30;;;14.20;92.40;;;;;;5075741;28;20364;-77
2023/11/10 03:11:07;;;;;;;4.78;1.42;;;14.20;92.40;;;;;;5075607;28;20510;-76
2023/11/10 03:13:34;;;;;;;2.80;1.40;;;14.20;92.30;;;;;;5075627;28;20408;-77
2023/11/10 03:15:59;;;;;;;2.15;1.05;;;14.20;92.30;;;;;;5076170;28;20409;-77
2023/11/10 03:18:25;;;;;;;2.65;1.40;;;14.30;92.30;;;;;;5075817;28;20051;-77
2023/11/10 03:20:51;;;;;;;3.58;1.20;;;14.20;92.20;;;;;;5075541;28;20044;-77
2023/11/10 03:23:17;;;;;;;3.28;1.45;;;14.20;92.20;;;;;;5075321;28;20515;-77
2023/11/10 03:25:42;;;;;;;3.03;1.15;;;14.20;92.20;;;;;;5088868;28;20085;-76
2023/11/10 03:28:08;;;;;;;1.80;1.10;;;14.20;92.20;;;;;;5095646;28;20096;-77
2023/11/10 03:30:34;;;;;;;3.40;1.38;;;14.20;92.20;;;;;;5095714;28;20028;-77
2023/11/10 03:33:00;;;;;;;2.13;1.40;;;14.20;92.10;;;;;;5095631;28;20028;-77
2023/11/10 03:35:26;;;;;;;3.85;1.48;;;14.20;92.20;;;;;;5095575;28;20028;-77
2023/11/10 03:37:52;;;;;;;1.65;1.00;;;14.20;92.20;;;;;;5095639;28;20042;-77
2023/11/10 03:40:17;;;;;;;1.08;0.90;;;14.20;92.20;;;;;;5095443;28;20475;-76
2023/11/10 03:42:43;;;;;;;2.25;1.20;;;14.10;92.20;;;;;;5095543;28;20024;-75
2023/11/10 03:45:09;;;;;;;2.10;1.42;;;14.20;92.20;;;;;;5095589;28;20059;-76
2023/11/10 03:47:35;;;;;;;2.42;1.20;;;14.20;92.20;;;;;;5095233;28;20055;-77
2023/11/10 03:50:01;;;;;;;2.78;1.05;;;14.20;92.20;;;;;;5095583;28;20399;-78
2023/11/10 03:52:26;;;;;;;2.72;1.20;;;14.20;92.20;;;;;;5095957;28;20027;-77
2023/11/10 03:54:52;;;;;;;1.90;1.23;;;14.20;92.20;;;;;;5095264;28;20475;-77
2023/11/10 03:57:18;;;;;;;1.90;1.08;;;14.20;92.10;;;;;;5095452;28;20056;-77
2023/11/10 03:59:43;;;;;;;1.45;1.13;;;14.20;92.20;;;;;;5095566;28;20100;-77
2023/11/10 04:02:09;;;;;;;2.15;1.00;;;14.20;92.20;;;;;;5077199;28;20028;-78
2023/11/10 04:04:36;;;;;;;1.65;1.00;;;14.20;92.20;;;;;;5095156;28;20051;-76
2023/11/10 04:07:03;;;;;;;1.90;1.05;;;14.20;92.20;;;;;;5094966;28;20115;-76
2023/11/10 04:09:33;;;;;;;2.28;1.05;;;14.20;92.20;;;;;;5095199;28;20054;-76
2023/11/10 04:11:59;;;;;;;5.25;1.25;;;14.20;92.20;;;;;;5095249;28;20131;-77
2023/11/10 04:14:25;;;;;;;2.47;1.13;;;14.30;92.30;;;;;;5094301;28;20311;-77
2023/11/10 04:16:50;;;;;;;2.03;1.27;;;14.30;92.20;;;;;;5094004;28;20495;-76
2023/11/10 04:19:16;;;;;;;2.22;1.20;;;14.30;92.20;;;;;;5094607;28;20115;-77
2023/11/10 04:21:42;;;;;;;3.28;1.20;;;14.30;92.20;;;;;;5094784;28;20129;-77
2023/11/10 04:24:07;;;;;;;2.95;1.20;;;14.30;92.20;;;;;;5095248;28;20484;-77
2023/11/10 04:26:33;;;;;;;6.00;1.13;;;14.40;92.20;;;;;;5095188;28;20040;-77
2023/11/10 04:28:59;;;;;;;2.63;1.10;;;14.40;92.30;;;;;;5095500;28;20028;-77
2023/11/10 04:31:25;;;;;;;3.95;1.17;;;14.40;92.30;;;;;;5095075;28;20070;-77
2023/11/10 04:33:51;;;;;;;4.07;1.42;;;14.40;92.30;;;;;;5094778;28;20112;-76
2023/11/10 04:36:16;;;;;;;4.03;1.55;;;14.40;92.30;;;;;;5094351;28;20067;-75
2023/11/10 04:38:43;;;;;;;3.95;1.38;;;14.40;92.40;;;;;;5094561;28;20958;-77
2023/11/10 04:41:09;;;;;;;2.05;1.20;;;14.40;92.40;;;;;;5094517;28;20044;-77
2023/11/10 04:43:35;;;;;;;2.28;1.20;;;14.40;92.40;;;;;;5094482;28;20295;-76
2023/11/10 04:46:04;;;;;;;3.53;1.10;;;14.40;92.70;;;;;;5094776;28;20043;-77
2023/11/10 04:48:30;;;;;;;2.60;1.23;;;14.40;92.50;;;;;;5076009;28;20032;-75
2023/11/10 04:50:56;;;;;;;3.65;1.27;;;14.40;92.50;;;;;;5094811;28;20097;-76
2023/11/10 04:53:21;;;;;;;4.00;1.33;;;14.40;92.60;;;;;;5094510;28;20028;-76
2023/11/10 04:55:47;;;;;;;1.50;1.10;;;14.40;92.50;;;;;;5094191;28;20049;-77
2023/11/10 04:58:13;;;;;;;2.90;1.48;;;14.30;92.50;;;;;;5094478;28;20368;-77
2023/11/10 05:00:39;;;;;;;4.07;1.50;;;14.30;92.50;;;;;;5075830;28;20492;-77
2023/11/10 05:03:06;;;;;;;5.40;1.70;;;14.30;92.50;;;;;;5094130;28;20028;-77
2023/11/10 05:05:34;;;;;;;4.20;1.30;;;14.40;92.60;;;;;;5093957;28;20032;-77
2023/11/10 05:08:02;;;;;;;1.77;1.02;;;14.40;92.70;;;;;;5073650;28;20028;-77
2023/11/10 05:10:29;;;;;;;2.20;1.15;;;14.40;92.70;;;;;;5073407;28;20373;-77
2023/11/10 05:12:55;;;;;;;3.47;1.20;;;14.40;92.70;;;;;;5055720;28;20551;-77
2023/11/10 05:15:20;;;;;;;2.92;1.27;;;14.40;92.70;;;;;;5073709;28;20067;-77
2023/11/10 05:17:46;;;;;;;2.55;1.25;;;14.40;92.70;;;;;;5073572;28;20104;-77
2023/11/10 05:20:13;;;;;;;4.10;1.38;;;14.40;92.70;;;;;;5073687;28;20071;-77
2023/11/10 05:22:42;;;;;;;3.55;1.15;;;14.40;92.80;;;;;;5073537;28;20566;-77
2023/11/10 05:25:08;;;;;;;8.27;3.38;;;14.40;92.80;;;;;;5072963;28;20049;-76
2023/11/10 05:27:34;;;;;;;8.73;3.72;;;14.40;92.90;;;;;;5072800;28;20077;-75
2023/11/10 05:30:00;;;;;;;4.72;2.20;;;14.40;92.90;;;;;;5073267;28;20040;-78
2023/11/10 05:32:26;;;;;;;2.78;1.50;;;14.40;92.80;;;;;;5073035;28;20524;-77
2023/11/10 05:34:54;;;;;;;3.70;1.60;;;14.40;92.80;;;;;;5073194;28;20432;-77
2023/11/10 05:37:24;;;;;;;3.53;1.70;;;14.40;92.80;;;;;;5055028;28;20029;-76
2023/11/10 05:39:53;;;;;;;3.13;1.55;;;14.50;92.90;;;;;;5073040;28;20040;-77
2023/11/10 05:42:22;;;;;;;3.88;1.90;;;14.50;93.00;;;;;;5073107;28;20036;-78
2023/11/10 05:44:49;;;;;;;3.90;1.60;;;14.60;93.00;;;;;;5072781;28;20058;-78
2023/11/10 05:47:15;;;;;;;4.55;1.80;;;14.50;93.00;;;;;;5072690;28;20036;-78
2023/11/10 05:49:41;;;;;;;4.55;2.15;;;14.60;93.10;;;;;;5072752;28;20531;-78
2023/11/10 05:52:09;;;;;;;4.38;1.85;;;14.50;93.10;;;;;;5072974;28;20036;-78
2023/11/10 05:54:35;;;;;;;4.63;2.33;;;14.60;93.20;;;;;;5072890;28;20068;-78
2023/11/10 05:57:00;;;;;;;6.55;2.70;;;14.50;93.30;;;;;;5072846;28;20087;-78
2023/11/10 05:59:27;;;;;;;6.38;2.65;;;14.50;93.20;;;;;;5072766;28;20036;-78
2023/11/10 06:01:54;;;;;;;5.07;1.75;;;14.60;93.30;;;;;;5073137;28;20042;-78
2023/11/10 06:04:20;;;;;;;4.57;1.98;;;14.50;93.30;;;;;;5054962;28;20047;-78
2023/11/10 06:06:46;;;;;;;6.47;2.70;;;14.50;93.50;;;;;;5072931;28;20028;-78
2023/11/10 06:09:13;;;;;;;6.15;2.92;;;14.50;93.50;;;;;;5073096;28;20090;-78
2023/11/10 06:11:39;;;;;;;5.20;2.38;;;14.50;93.60;;;;;;5072948;28;20116;-77
2023/11/10 06:14:05;;;;;;;4.57;2.17;;;14.60;93.60;;;;;;5072801;28;20118;-77
2023/11/10 06:16:32;;;;;;;4.72;2.70;;;14.50;93.70;;;;;;5072866;28;20029;-77
2023/11/10 06:18:58;;;;;;;5.38;2.22;;;14.60;93.80;;;;;;5072687;28;20035;-77
2023/11/10 06:21:24;;;;;;;3.22;2.00;;;14.60;93.80;;;;;;5072892;28;20040;-77
2023/11/10 06:23:55;;;;;;;3.67;1.90;;;14.50;93.80;;;;;;5072546;28;20076;-76
2023/11/10 06:26:21;;;;;;;4.90;2.10;;;14.50;93.70;;;;;;5072521;28;20514;-75
2023/11/10 06:28:47;;;;;;;3.28;1.80;;;14.60;93.80;;;;;;5072586;28;20032;-77
2023/11/10 06:31:16;;;;;;;4.25;2.03;;;14.60;94.10;;;;;;5072437;28;20078;-76
2023/11/10 06:33:43;;;;;;;3.55;1.95;;;14.60;93.90;;;;;;5054607;28;20040;-76
2023/11/10 06:36:09;;;;;;;4.72;2.22;;;14.60;93.80;;;;;;5054420;28;20120;-77
2023/11/10 06:38:37;;;;;;;3.95;2.00;;;14.60;93.80;;;;;;5071522;28;20068;-77
2023/11/10 06:41:02;;;;;;;4.25;1.95;;;14.60;93.90;;;;;;5072102;28;20032;-76
2023/11/10 06:43:28;;;;;;;4.50;2.20;;;14.60;93.80;;;;;;5072512;28;20109;-83
2023/11/10 06:45:54;;;;;;;5.82;2.25;;;14.60;93.80;;;;;;5072482;28;20443;-82
2023/11/10 06:48:20;;;;;;;4.40;1.83;;;14.60;93.80;;;;;;5087483;28;20040;-81
2023/11/10 06:50:45;;;;;;;3.92;2.28;;;14.60;93.80;;;;;;5092989;28;20114;-83
2023/11/10 06:53:11;;;;;;;4.63;1.92;;;14.60;93.90;;;;;;5094393;28;20028;-89
2023/11/10 06:55:38;;;;;;;5.00;2.08;;;14.60;93.90;;;;;;5093019;28;20032;-80
2023/11/10 06:58:04;;;;;;;4.07;2.10;;;14.50;93.90;;;;;;5092157;28;20058;-80
2023/11/10 07:00:32;;;;;;;4.75;2.30;;;14.60;93.90;;;;;;5074061;28;20524;-81
2023/11/10 07:02:59;;;;;;;4.47;2.00;;;14.70;94.00;;;;;;5092836;28;20062;-83
2023/11/10 07:05:26;;;;;;;4.30;2.17;;;14.70;93.90;;;;;;5093414;28;20085;-78
2023/11/10 07:07:56;;;;;;;3.83;2.30;;;14.70;93.80;;;;;;5074292;28;20043;-80
2023/11/10 07:10:22;;;;;;;5.13;2.28;;;14.80;93.80;;;;;;5092318;28;20062;-79
2023/11/10 07:12:47;;;;;;;4.20;2.25;;;14.80;93.90;;;;;;5079994;28;20036;-80
2023/11/10 07:15:13;;;;;;;4.45;2.40;;;14.80;93.90;;;;;;5054418;28;20349;-82
2023/11/10 07:17:41;;;;;;;4.65;1.90;;;14.80;93.90;;;;;;5072231;28;20036;-82
2023/11/10 07:20:14;;;;;;;5.85;1.90;;;14.80;93.90;;;;;;5072077;28;20052;-82
2023/11/10 07:22:40;;;;;;;9.52;2.60;;;14.80;93.90;;;;;;5071757;28;20047;-82
2023/11/10 07:25:06;;;;;;;4.78;2.15;;;14.80;93.80;;;;;;5072035;28;20543;-81
2023/11/10 07:27:33;;;;;;;6.70;2.17;;;14.90;93.90;;;;;;5072167;28;20032;-82
2023/11/10 07:29:58;;;;;;;5.63;2.10;;;15.00;93.80;;;;;;5072094;28;20094;-81
2023/11/10 07:32:24;;;;;;;6.68;2.28;;;15.10;93.60;;;;;;5071797;28;20037;-84
2023/11/10 07:34:50;;;;;;;9.52;2.10;;;15.10;93.60;;;;;;5074478;28;20039;-82
2023/11/10 07:37:16;;;;;;;11.00;2.83;;;15.10;93.50;;;;;;5071889;28;20036;-81
2023/11/10 07:39:42;;;;;;;5.13;2.20;;;15.10;93.50;;;;;;5078947;28;20119;-83
2023/11/10 07:42:07;;;;;;;7.93;2.33;;;15.10;93.40;;;;;;5088980;28;20036;-82
2023/11/10 07:44:36;;;;;;;8.48;2.40;;;15.10;93.50;;;;;;5080348;28;20029;-82
2023/11/10 07:47:02;;;;;;;4.28;2.17;;;15.10;93.40;;;;;;5080067;28;20029;-82
2023/11/10 07:49:27;;;;;;;3.53;1.88;;;15.10;93.40;;;;;;5070873;28;20036;-84
2023/11/10 07:51:54;;;;;;;5.72;2.13;;;15.10;93.40;;;;;;5092678;28;20039;-83
2023/11/10 07:54:23;;;;;;;7.63;2.30;;;15.10;93.40;;;;;;5095756;28;20131;-82
2023/11/10 07:56:50;;;;;;;6.25;2.35;;;15.20;93.50;;;;;;5098870;28;20028;-81
2023/11/10 07:59:15;;;;;;;8.02;3.08;;;15.20;93.40;;;;;;5097494;28;20032;-81
2023/11/10 08:01:41;;;;;;;5.78;2.88;;;15.30;93.40;;;;;;5096344;28;20526;-81
2023/11/10 08:04:10;;;;;;;6.53;2.58;;;15.50;93.30;;;;;;5099317;28;20040;-79
2023/11/10 08:06:39;;;;;;;5.45;2.78;;;15.60;93.10;;;;;;5095354;28;20514;-79
2023/11/10 08:09:04;;;;;;;4.85;2.75;;;15.60;93.10;;;;;;5095024;28;20082;-79
2023/11/10 08:11:31;;;;;;;13.55;2.80;;;15.70;93.10;;;;;;5094768;28;20430;-79
2023/11/10 08:13:57;;;;;;;6.65;2.60;;;15.80;93.00;;;;;;5095253;28;20020;-77
2023/11/10 08:16:23;;;;;;;7.95;2.95;;;15.80;92.90;;;;;;5094964;28;20074;-77
2023/11/10 08:18:49;;;;;;;6.75;3.40;;;15.90;92.90;;;;;;5094934;28;20028;-77
2023/11/10 08:21:18;;;;;;;7.72;2.88;;;16.00;92.80;;;;;;5094360;28;20502;-79
2023/11/10 08:23:44;;;;;;;7.07;2.85;;;16.00;93.10;;;;;;5094803;28;20036;-78
2023/11/10 08:26:10;;;;;;;6.90;2.92;;;16.00;92.70;;;;;;5094806;28;20062;-76
2023/11/10 08:28:36;;;;;;;6.57;3.00;;;16.00;92.70;;;;;;5076270;28;20035;-78
2023/11/10 08:31:02;;;;;;;7.43;3.90;;;16.10;92.70;;;;;;5094396;28;20040;-77
2023/11/10 08:33:28;;;;;;;6.93;3.10;;;16.10;92.70;;;;;;5094835;28;20112;-78
2023/11/10 08:35:53;;;;;;;6.55;2.95;;;16.10;92.60;;;;;;5094459;28;20036;-77
2023/11/10 08:38:20;;;;;;;9.43;3.20;;;16.10;92.60;;;;;;5094137;28;20057;-77
2023/11/10 08:40:46;;;;;;;6.97;3.17;;;16.20;92.50;;;;;;5094126;28;20135;-78
2023/11/10 08:43:12;;;;;;;10.18;3.35;;;16.10;92.60;;;;;;5094691;28;20055;-77
2023/11/10 08:45:38;;;;;;;4.88;3.10;;;16.10;92.60;;;;;;5094274;28;20410;-79
2023/11/10 08:48:04;;;;;;;4.60;2.72;;;16.10;92.50;;;;;;5094291;28;20055;-77
2023/11/10 08:50:30;;;;;;;5.57;2.92;;;16.10;92.50;;;;;;5093909;28;20040;-78
2023/11/10 08:52:57;;;;;;;7.20;3.15;;;16.10;92.50;;;;;;5093845;28;20063;-77
2023/11/10 08:55:22;;;;;;;5.03;2.97;;;16.10;92.50;;;;;;5093729;28;20043;-78
2023/11/10 08:57:49;;;;;;;6.28;3.20;;;16.10;92.50;;;;;;5093910;28;20032;-77
2023/11/10 09:00:17;;;;;;;6.88;3.13;;;16.10;92.60;;;;;;5093796;28;20047;-76
2023/11/10 09:02:44;;;;;;;7.78;3.42;;;16.20;92.50;;;;;;5075277;28;20434;-78
2023/11/10 09:05:10;;;;;;;5.93;3.13;;;16.20;92.50;;;;;;5094247;28;20040;-77
2023/11/10 09:07:41;;;;;;;9.13;3.50;;;16.30;92.40;;;;;;5093728;28;20376;-76
2023/11/10 09:10:10;;;;;;;8.23;3.45;;;16.40;92.40;;;;;;5094030;28;20032;-77
2023/11/10 09:12:35;;;;;;;7.05;3.58;;;16.40;92.30;;;;;;5093432;28;20032;-77
2023/11/10 09:15:03;;;;;;;9.30;4.00;;;16.60;92.30;;;;;;5093450;28;20034;-78
2023/11/10 09:17:31;;;;;;;6.45;3.55;;;16.60;92.10;;;;;;5093645;28;20055;-76
2023/11/10 09:19:57;;;;;;;9.15;3.33;;;16.70;92.00;;;;;;5093313;28;20040;-77
2023/11/10 09:22:23;;;;;;;6.97;3.63;;;16.80;92.00;;;;;;5093431;28;20464;-78
2023/11/10 09:24:49;;;;;;;10.95;4.03;;;16.80;91.90;;;;;;5092824;28;20519;-84
2023/11/10 09:27:14;;;;;;;10.02;4.10;;;16.80;91.90;;;;;;5093450;28;20039;-78
2023/11/10 09:29:41;;;;;;;6.88;4.50;;;16.70;92.00;;;;;;5075443;28;20564;-80
2023/11/10 09:32:10;;;;;;;9.00;4.05;;;16.60;92.00;;;;;;5075027;28;20573;-78
2023/11/10 09:34:40;;;;;;;8.75;3.85;;;16.40;92.20;;;;;;5093165;28;20032;-77
2023/11/10 09:37:06;;;;;;;11.75;4.28;;;16.40;92.10;;;;;;5094192;28;20077;-79
2023/11/10 09:39:32;;;;;;;7.55;4.30;;;16.40;92.30;;;;;;5093744;28;20426;-79
2023/11/10 09:42:06;;;;;;;8.95;4.28;;;16.40;92.40;;;;;;5075411;28;20032;-79
2023/11/10 09:44:36;;;;;;;13.18;4.20;;;16.40;92.40;;;;;;5075368;28;20024;-78
2023/11/10 09:47:03;;;;;;;8.55;3.75;;;16.40;92.40;;;;;;5075617;28;20036;-77
2023/11/10 09:49:30;;;;;;;10.07;3.75;;;16.50;92.20;;;;;;5093375;28;20044;-78
2023/11/10 09:51:56;;;;;;;9.43;4.10;;;16.60;92.20;;;;;;5093352;28;20051;-78
2023/11/10 09:54:23;;;;;;;8.55;4.05;;;16.70;92.00;;;;;;5093135;28;20113;-78
2023/11/10 09:56:49;;;;;;;6.55;3.80;;;16.80;91.90;;;;;;5093180;28;20472;-79
2023/11/10 09:59:16;;;;;;;8.02;4.05;;;16.90;91.70;;;;;;5092664;28;20452;-78
2023/11/10 10:01:43;;;;;;;8.15;3.90;;;16.80;91.70;;;;;;5092903;28;20097;-77
2023/11/10 10:04:09;;;;;;;10.95;4.80;;;16.90;91.70;;;;;;5092827;28;20089;-79
2023/11/10 10:06:36;;;;;;;6.13;3.88;;;17.00;91.60;;;;;;5093389;28;20036;-78
2023/11/10 10:09:05;;;;;;;6.93;3.95;;;17.20;91.60;;;;;;5092715;28;20024;-78
2023/11/10 10:11:32;;;;;;;9.27;4.35;;;17.30;91.40;;;;;;5092819;28;20119;-78
2023/11/10 10:13:57;;;;;;;8.95;4.47;;;17.40;91.40;;;;;;5092366;28;20028;-78
2023/11/10 10:16:23;;;;;;;12.18;4.47;;;17.60;91.30;;;;;;5092892;28;20039;-78
2023/11/10 10:18:55;;;;;;;9.80;4.72;;;17.80;91.10;;;;;;5093293;28;20050;-81
2023/11/10 10:21:21;;;;;;;11.52;4.72;;;18.00;91.20;;;;;;5093908;28;20486;-78
2023/11/10 10:23:50;;;;;;;10.00;4.75;;;18.10;90.60;;;;;;5092908;28;20075;-78
2023/11/10 10:26:17;;;;;;;10.88;5.15;;;18.20;90.40;;;;;;5094081;28;20070;-78
2023/11/10 10:28:46;;;;;;;16.10;5.57;;;18.40;90.20;;;;;;5092500;28;20024;-76
2023/11/10 10:31:14;;;;;;;11.30;4.97;;;18.50;90.10;;;;;;5092660;28;20055;-79
2023/11/10 10:33:39;;;;;;;11.13;5.40;;;18.50;89.90;;;;;;5092646;28;20123;-79
2023/11/10 10:36:06;;;;;;;11.88;4.78;;;18.50;89.90;;;;;;5074828;28;20070;-79
2023/11/10 10:38:33;;;;;;;12.25;5.22;;;18.50;89.90;;;;;;5093125;28;20578;-78
2023/11/10 10:41:04;;;;;;;14.10;4.80;;;18.50;89.80;;;;;;5092203;28;20119;-79
2023/11/10 10:43:30;;;;;;;13.75;4.43;;;18.50;89.80;;;;;;5074106;28;20488;-78
2023/11/10 10:45:58;;;;;;;10.88;4.25;;;18.40;89.90;;;;;;5092397;28;20122;-79
2023/11/10 10:48:26;;;;;;;8.85;4.57;;;18.50;89.90;;;;;;5092663;28;20544;-80
2023/11/10 10:50:56;;;;;;;13.35;4.72;;;18.50;89.60;;;;;;5092224;28;20149;-79
2023/11/10 10:53:22;;;;;;;34.38;6.82;;;18.50;89.60;;;;;;5093175;28;20028;-79
2023/11/10 10:55:52;;;;;;;82.07;11.32;;;18.60;89.40;;;;;;5092806;28;20038;-78
2023/11/10 10:58:22;;;;;;;17.50;5.45;;;18.70;89.30;;;;;;5092306;28;20032;-80
2023/11/10 11:00:48;;;;;;;9.45;4.60;;;18.70;89.10;;;;;;5074015;28;20044;-79
2023/11/10 11:03:16;;;;;;;11.13;4.10;;;18.70;89.10;;;;;;5092778;28;20025;-79
2023/11/10 11:06:01;;;;;;;10.30;3.72;;;18.80;89.90;;;;;;5092270;28;20438;-80
2023/11/10 11:08:48;;;;;;;11.27;3.30;;;18.80;89.00;;;;;;5093489;28;20038;-79
2023/11/10 11:11:38;;;;;;;13.13;3.78;;;18.80;89.70;;;;;;5092939;28;20111;-79
2023/11/10 11:14:41;;;;;;;8.48;2.97;;;18.70;89.30;;;;;;5092449;28;20492;-79
2023/11/10 11:17:25;;;;;;;9.30;3.15;;;18.80;89.10;;;;;;5092036;28;20032;-79
2023/11/10 11:19:51;;;;;;;11.02;2.88;;;18.60;88.30;;;;;;5092133;28;20059;-79
2023/11/10 11:22:18;;;;;;;7.65;2.67;;;18.60;88.40;;;;;;5092045;28;20044;-78
2023/11/10 11:24:44;;;;;;;9.75;2.85;;;18.50;88.20;;;;;;5092841;28;20043;-79
2023/11/10 11:27:19;;;;;;;8.23;2.90;;;18.50;88.20;;;;;;5096206;28;20038;-79
2023/11/10 11:29:45;;;;;;;11.57;3.53;;;18.50;88.20;;;;;;5095880;28;20062;-79
2023/11/10 11:32:19;;;;;;;7.70;2.70;;;18.40;87.90;;;;;;5096007;28;20032;-79
2023/11/10 11:34:52;;;;;;;9.98;3.25;;;18.40;87.80;;;;;;5077759;28;20032;-79
2023/11/10 11:37:17;;;;;;;7.72;2.88;;;18.40;87.90;;;;;;5096096;28;20059;-80
2023/11/10 11:39:43;;;;;;;8.65;3.50;;;18.40;88.00;;;;;;5095787;28;20553;-79
2023/11/10 11:42:09;;;;;;;9.05;3.72;;;18.40;87.90;;;;;;5095982;28;20056;-80
2023/11/10 11:44:36;;;;;;;16.25;3.30;;;18.50;87.80;;;;;;5096124;28;20082;-79
2023/11/10 11:47:11;;;;;;;8.15;2.60;;;18.60;87.60;;;;;;5095838;28;20028;-78
2023/11/10 11:49:40;;;;;;;9.32;2.97;;;18.70;87.40;;;;;;5095695;28;20100;-79
2023/11/10 11:52:08;;;;;;;9.70;3.53;;;18.70;87.40;;;;;;5095567;28;20436;-78
2023/11/10 11:54:34;;;;;;;9.38;3.50;;;18.70;87.50;;;;;;5095490;28;20399;-79
2023/11/10 11:57:01;;;;;;;7.93;3.00;;;18.60;87.60;;;;;;5095423;28;20028;-80
2023/11/10 11:59:28;;;;;;;7.00;2.60;;;18.60;87.70;;;;;;5095633;28;20085;-78
2023/11/10 12:01:55;;;;;;;5.00;2.30;;;18.50;87.60;;;;;;5095382;28;20409;-78
2023/11/10 12:04:21;;;;;;;6.53;2.15;;;18.50;87.60;;;;;;5095269;28;20020;-78
2023/11/10 12:06:48;;;;;;;8.60;2.30;;;18.50;87.10;;;;;;5095615;28;20088;-80
2023/11/10 12:09:14;;;;;;;7.15;2.67;;;18.60;87.10;;;;;;5095384;28;20051;-80
2023/11/10 12:11:40;;;;;;;5.72;2.60;;;18.70;86.70;;;;;;5095786;28;20456;-79
2023/11/10 12:14:09;;;;;;;8.52;2.97;;;18.80;86.60;;;;;;5095472;28;20028;-78
2023/11/10 12:16:41;;;;;;;9.32;2.80;;;18.90;86.20;;;;;;5076761;28;20119;-80
2023/11/10 12:19:09;;;;;;;7.30;2.30;;;19.00;85.80;;;;;;5095155;28;20024;-77
2023/11/10 12:21:35;;;;;;;5.78;2.10;;;19.10;85.40;;;;;;5076956;28;20140;-79
2023/11/10 12:24:05;;;;;;;9.70;2.20;;;19.20;85.10;;;;;;5096041;28;20036;-80
2023/11/10 12:26:40;;;;;;;7.13;2.50;;;19.30;84.80;;;;;;5076674;28;20399;-76
2023/11/10 12:29:09;;;;;;;6.07;2.13;;;19.40;84.30;;;;;;5094867;28;20030;-81
2023/11/10 12:31:34;;;;;;;5.50;2.10;;;19.50;84.00;;;;;;5093048;28;20365;-76
2023/11/10 12:34:02;;;;;;;6.65;2.40;;;19.60;83.60;;;;;;5094483;28;20036;-84
2023/11/10 12:36:35;;;;;;;11.18;2.25;;;19.70;83.30;;;;;;5075533;28;20182;-77
2023/11/10 12:39:06;;;;;;;11.23;2.60;;;19.80;82.70;;;;;;5094763;28;20177;-81
2023/11/10 12:41:32;;;;;;;8.35;2.60;;;19.80;82.40;;;;;;5099203;28;20036;-82
2023/11/10 12:43:59;;;;;;;7.65;3.28;;;19.70;82.40;;;;;;5095727;28;20487;-82